Список аэропортов
Фактическая погода:

19 августа, 05:00
Температура: +20°C (+20.0*)
Ветер: сев.-западный 5 м/с
Давление: *760 мм
несуществ. обл. дымка
Время (МСК)Темп. СВетерВлажностьДавлениеОблачностьОсадки
03:00+22ЮЗ, 3 м/с82%1013 гПамалооблачно
04:00+22ЮЗ, 3 м/с88%1013 гПаясно
05:00+21ЮЗ, 3 м/с91%1013 гПаясно
06:00+21З, 3 м/с91%1014 гПамалооблачно
07:00+22З, 3 м/с82%1014 гПас прояснениями
08:00+24З, 3 м/с70%1014 гПамалооблачно
09:00+27З, 3 м/с59%1014 гПамалооблачно
10:00+29СЗ, 2 м/с49%1014 гПаясно
11:00+31С, 3 м/с42%1013 гПаясно
12:00+32С, 3 м/с40%1013 гПаясно
13:00+33СВ, 3 м/с36%1013 гПаясно
14:00+34СВ, 3 м/с33%1013 гПаясно
15:00+34СВ, 4 м/с31%1012 гПаясно
16:00+34СВ, 4 м/с30%1013 гПаясно
17:00+34СВ, 4 м/с30%1013 гПаясно
18:00+33СВ, 4 м/с32%1013 гПаясно
19:00+31СВ, 2 м/с40%1014 гПаясно
20:00+28В, 2 м/с49%1014 гПаясно
21:00+26В, 1 м/с58%1015 гПаясно
22:00+25ЮВ, 1 м/с65%1015 гПаясно
23:00+24Ю, 1 м/с69%1014 гПаясно
20 августа
00:00+23СЗ, 1 м/с74%1015 гПас прояснениямисл. дождь
01:00+22В, 1 м/с80%1015 гПас прояснениями
02:00+21ЮВ, 1 м/с84%1015 гПаясно
03:00+20Штиль 86%1016 гПаясно
04:00+20Штиль 87%1016 гПаясно
05:00+19Ю, 1 м/с88%1016 гПаясно
06:00+19Ю, 1 м/с88%1017 гПамалооблачно
07:00+21Штиль 82%1016 гПас прояснениями
08:00+23СВ, 1 м/с61%1016 гПас прояснениями
09:00+26С, 1 м/с50%1016 гПаясно
10:00+28С, 1 м/с44%1015 гПаясно
11:00+31С, 2 м/с38%1015 гПаясно
12:00+32С, 3 м/с33%1015 гПаясно
13:00+33СВ, 3 м/с30%1014 гПаясно
14:00+34СВ, 3 м/с29%1014 гПаясно
15:00+34СВ, 4 м/с29%1013 гПаясно
16:00+34СВ, 4 м/с30%1013 гПаясно
17:00+34СВ, 4 м/с31%1014 гПаясно
18:00+33СВ, 4 м/с34%1014 гПаясно
19:00+31СВ, 3 м/с40%1014 гПаясно
20:00+29СВ, 3 м/с46%1015 гПаясно
21:00+27СВ, 2 м/с50%1015 гПаясно
22:00+25СВ, 2 м/с54%1015 гПаясно
23:00+24В, 3 м/с46%1015 гПаясно
21 августа
00:00+22В, 2 м/с53%1015 гПаясно
01:00+20В, 1 м/с62%1016 гПаясно
02:00+19СВ, 1 м/с68%1016 гПаясно
03:00+18СВ, 1 м/с71%1016 гПаясно